Houston, TX

01:57 PM CST em 10 de Fevereiro de 2016 (GMT -0600)
George Bush Intercontinental-Houston Airport | | Change Station
CLOSE
Current Station
Aeroporto
Location: Houston Intercontinental,
Altitude: 108 ft
Estações Meteorológicas Próximas

Elev 108 ft 29.98 °N, 95.34 °W | Updated 4 minutes ago

Céu Limpo
Céu Limpo
68 °F
Aparente 68 °F
N
4
Vento Variável Vento de Variável

Hoje
Máxima -- | Mínima -- °F
--% Possibilidade de Precip.
Ontem
Máxima -- | Mínima -- °F
Precip. -- pol
Pressão 30.30 pol
Visibilidade 10.0 milhas
Nuvens Céu Limpo
Ponto de Orvalho 28 °F
Humidade 22%
Chuva 0.00 pol
Altura de Neve Não disponível
7:05 AM 6:05 PM
Quarto crescente, 7% visible
METAR KIAH 101953Z VRB03KT 10SM CLR 20/M02 A3030 RMK AO2 SLP259 T02001022
Pressão 30.30 pol
Visibilidade 10.0 milhas
Nuvens Céu Limpo
Ponto de Orvalho 28 °F
Humidade 22%
Chuva 0.00 pol
Altura de Neve Não disponível
7:05 AM 6:05 PM
Quarto crescente, 7% visible
METAR KIAH 101953Z VRB03KT 10SM CLR 20/M02 A3030 RMK AO2 SLP259 T02001022

10-Day Weather Forecast

Almanac

Astronomia

Feb. 10, 2016 Nascer Pôr
Hora atual
Crepúsculo civil
Crepúsculo náutico
Crepúsculo astronómico
Lua
Comprimento da luz visível
Duração do Dia
Tomorrow will be .
, % of the Moon is Illuminated

Extremos de Hoje

situação na parte mais alta situação na parte mais baixa

Community

WunderPhotos

Upload Photos

1,891,925 fotografias inseridas!

WunderBlog® & News

Nearby

Qualidade do Ar

  Qualidade do Ar Índice da Q.A. Poluente
Not available.

Altura da Neve

Estação altura Altitude

Actividade Sísmisca

Cidade Distância Mag. Hora & Data
Mínima magnitude apresentada é 2.5.

Temperaturas das Águas Costeiras

Local Temperatura

Stations

Estações Meteorológicas Próximas

Localização da Estação Temp. Sensação Térmica Ponto de Orvalho Humidade Vento Precip. Elev Actualizado Tipo
                   

Watches & Warnings

There are currently no watches in effect.